sensor_id;sensor_type;location;lat;lon;timestamp;pressure;altitude;pressure_sealevel;temperature;humidity
41306;BME280;27051;50.376;19.152;2023-04-20T00:00:16;98333.91;;;9.46;67.91
41306;BME280;27051;50.376;19.152;2023-04-20T00:03:02;98323.97;;;9.43;67.91
41306;BME280;27051;50.376;19.152;2023-04-20T00:05:29;98325.05;;;9.43;67.98
41306;BME280;27051;50.376;19.152;2023-04-20T00:07:55;98322.27;;;9.36;67.92
41306;BME280;27051;50.376;19.152;2023-04-20T00:10:22;98325.61;;;9.42;67.92
41306;BME280;27051;50.376;19.152;2023-04-20T00:12:48;98322.98;;;9.47;68.12
41306;BME280;27051;50.376;19.152;2023-04-20T00:15:15;98322.47;;;9.50;67.97
41306;BME280;27051;50.376;19.152;2023-04-20T00:17:41;98324.05;;;9.49;68.09
41306;BME280;27051;50.376;19.152;2023-04-20T00:20:08;98318.90;;;9.49;68.08
41306;BME280;27051;50.376;19.152;2023-04-20T00:22:35;98314.42;;;9.44;68.21
41306;BME280;27051;50.376;19.152;2023-04-20T00:25:02;98315.83;;;9.47;68.13
41306;BME280;27051;50.376;19.152;2023-04-20T00:27:28;98313.99;;;9.47;68.17
41306;BME280;27051;50.376;19.152;2023-04-20T00:29:54;98316.02;;;9.51;68.23
41306;BME280;27051;50.376;19.152;2023-04-20T00:32:21;98314.23;;;9.55;68.05
41306;BME280;27051;50.376;19.152;2023-04-20T00:34:47;98313.20;;;9.56;68.18
41306;BME280;27051;50.376;19.152;2023-04-20T00:37:14;98312.70;;;9.57;68.05
41306;BME280;27051;50.376;19.152;2023-04-20T00:39:40;98315.14;;;9.55;68.14
41306;BME280;27051;50.376;19.152;2023-04-20T00:42:07;98310.12;;;9.47;68.25
41306;BME280;27051;50.376;19.152;2023-04-20T00:44:34;98318.24;;;9.49;68.30
41306;BME280;27051;50.376;19.152;2023-04-20T00:47:01;98317.52;;;9.48;68.12
41306;BME280;27051;50.376;19.152;2023-04-20T00:49:28;98316.62;;;9.54;68.30
41306;BME280;27051;50.376;19.152;2023-04-20T00:51:56;98311.83;;;9.58;68.34
41306;BME280;27051;50.376;19.152;2023-04-20T00:54:24;98310.52;;;9.62;68.27
41306;BME280;27051;50.376;19.152;2023-04-20T00:56:52;98309.86;;;9.61;68.22
41306;BME280;27051;50.376;19.152;2023-04-20T00:59:20;98308.06;;;9.60;68.17
41306;BME280;27051;50.376;19.152;2023-04-20T01:01:47;98309.33;;;9.57;68.34
41306;BME280;27051;50.376;19.152;2023-04-20T01:04:13;98303.95;;;9.59;68.38
41306;BME280;27051;50.376;19.152;2023-04-20T01:06:40;98302.50;;;9.59;68.18
41306;BME280;27051;50.376;19.152;2023-04-20T01:09:07;98305.40;;;9.59;68.35
41306;BME280;27051;50.376;19.152;2023-04-20T01:11:33;98307.55;;;9.63;68.13
41306;BME280;27051;50.376;19.152;2023-04-20T01:14:00;98304.25;;;9.65;68.28
41306;BME280;27051;50.376;19.152;2023-04-20T01:16:26;98306.09;;;9.67;68.40
41306;BME280;27051;50.376;19.152;2023-04-20T01:18:53;98303.07;;;9.66;68.28
41306;BME280;27051;50.376;19.152;2023-04-20T01:21:19;98304.53;;;9.64;68.29
41306;BME280;27051;50.376;19.152;2023-04-20T01:23:46;98298.98;;;9.55;68.23
41306;BME280;27051;50.376;19.152;2023-04-20T01:26:14;98290.93;;;9.51;68.32
41306;BME280;27051;50.376;19.152;2023-04-20T01:28:42;98293.58;;;9.50;68.42
41306;BME280;27051;50.376;19.152;2023-04-20T01:31:10;98296.66;;;9.54;68.48
41306;BME280;27051;50.376;19.152;2023-04-20T01:33:36;98294.91;;;9.57;68.42
41306;BME280;27051;50.376;19.152;2023-04-20T01:36:04;98295.39;;;9.57;68.49
41306;BME280;27051;50.376;19.152;2023-04-20T01:38:32;98293.16;;;9.61;68.50
41306;BME280;27051;50.376;19.152;2023-04-20T01:40:59;98293.51;;;9.62;68.51
41306;BME280;27051;50.376;19.152;2023-04-20T01:43:26;98290.00;;;9.57;68.52
41306;BME280;27051;50.376;19.152;2023-04-20T01:45:53;98289.44;;;9.56;68.43
41306;BME280;27051;50.376;19.152;2023-04-20T01:48:19;98294.52;;;9.52;68.44
41306;BME280;27051;50.376;19.152;2023-04-20T01:50:49;98302.44;;;9.59;68.48
41306;BME280;27051;50.376;19.152;2023-04-20T01:53:16;98304.95;;;9.59;68.44
41306;BME280;27051;50.376;19.152;2023-04-20T01:55:43;98305.93;;;9.63;68.65
41306;BME280;27051;50.376;19.152;2023-04-20T01:58:09;98307.81;;;9.66;68.66
41306;BME280;27051;50.376;19.152;2023-04-20T02:00:36;98306.33;;;9.69;68.48
41306;BME280;27051;50.376;19.152;2023-04-20T02:03:02;98302.67;;;9.64;68.50
41306;BME280;27051;50.376;19.152;2023-04-20T02:05:29;98301.29;;;9.63;68.61
41306;BME280;27051;50.376;19.152;2023-04-20T02:07:55;98301.75;;;9.66;68.47
41306;BME280;27051;50.376;19.152;2023-04-20T02:10:21;98303.96;;;9.69;68.43
41306;BME280;27051;50.376;19.152;2023-04-20T02:12:48;98308.27;;;9.74;68.53
41306;BME280;27051;50.376;19.152;2023-04-20T02:15:15;98308.25;;;9.77;68.50
41306;BME280;27051;50.376;19.152;2023-04-20T02:17:41;98306.23;;;9.77;68.52
41306;BME280;27051;50.376;19.152;2023-04-20T02:20:09;98307.30;;;9.77;68.39
41306;BME280;27051;50.376;19.152;2023-04-20T02:22:36;98305.70;;;9.77;68.48
41306;BME280;27051;50.376;19.152;2023-04-20T02:25:04;98301.13;;;9.72;68.41
41306;BME280;27051;50.376;19.152;2023-04-20T02:27:31;98301.88;;;9.69;68.49
41306;BME280;27051;50.376;19.152;2023-04-20T02:29:58;98300.09;;;9.66;68.46
41306;BME280;27051;50.376;19.152;2023-04-20T02:32:26;98303.27;;;9.72;68.42
41306;BME280;27051;50.376;19.152;2023-04-20T02:34:52;98301.56;;;9.73;68.49
41306;BME280;27051;50.376;19.152;2023-04-20T02:37:19;98302.90;;;9.74;68.41
41306;BME280;27051;50.376;19.152;2023-04-20T02:39:45;98301.31;;;9.77;68.51
41306;BME280;27051;50.376;19.152;2023-04-20T02:42:12;98301.79;;;9.73;68.31
41306;BME280;27051;50.376;19.152;2023-04-20T02:44:38;98296.42;;;9.65;68.49
41306;BME280;27051;50.376;19.152;2023-04-20T02:47:04;98299.34;;;9.67;68.62
41306;BME280;27051;50.376;19.152;2023-04-20T02:49:31;98300.10;;;9.71;68.49
41306;BME280;27051;50.376;19.152;2023-04-20T02:51:57;98306.38;;;9.72;68.36
41306;BME280;27051;50.376;19.152;2023-04-20T02:54:23;98307.21;;;9.70;68.31
41306;BME280;27051;50.376;19.152;2023-04-20T02:56:50;98308.45;;;9.72;68.49
41306;BME280;27051;50.376;19.152;2023-04-20T02:59:16;98307.64;;;9.75;68.36
41306;BME280;27051;50.376;19.152;2023-04-20T03:01:43;98313.19;;;9.76;68.36
41306;BME280;27051;50.376;19.152;2023-04-20T03:04:09;98312.41;;;9.78;68.35
41306;BME280;27051;50.376;19.152;2023-04-20T03:06:36;98312.21;;;9.72;68.44
41306;BME280;27051;50.376;19.152;2023-04-20T03:09:03;98310.21;;;9.69;68.42
41306;BME280;27051;50.376;19.152;2023-04-20T03:11:30;98311.81;;;9.70;68.52
41306;BME280;27051;50.376;19.152;2023-04-20T03:13:56;98310.35;;;9.72;68.39
41306;BME280;27051;50.376;19.152;2023-04-20T03:16:23;98319.63;;;9.76;68.50
41306;BME280;27051;50.376;19.152;2023-04-20T03:18:49;98318.51;;;9.83;68.64
41306;BME280;27051;50.376;19.152;2023-04-20T03:21:16;98316.88;;;9.85;68.34
41306;BME280;27051;50.376;19.152;2023-04-20T03:23:42;98318.86;;;9.81;68.40
41306;BME280;27051;50.376;19.152;2023-04-20T03:26:09;98325.29;;;9.80;68.33
41306;BME280;27051;50.376;19.152;2023-04-20T03:28:35;98320.48;;;9.75;68.42
41306;BME280;27051;50.376;19.152;2023-04-20T03:31:01;98320.73;;;9.73;68.28
41306;BME280;27051;50.376;19.152;2023-04-20T03:33:28;98323.11;;;9.71;68.37
41306;BME280;27051;50.376;19.152;2023-04-20T03:35:54;98324.69;;;9.72;68.39
41306;BME280;27051;50.376;19.152;2023-04-20T03:38:20;98327.70;;;9.77;68.34
41306;BME280;27051;50.376;19.152;2023-04-20T03:40:47;98327.94;;;9.77;68.33
41306;BME280;27051;50.376;19.152;2023-04-20T03:43:13;98329.05;;;9.80;68.40
41306;BME280;27051;50.376;19.152;2023-04-20T03:45:40;98330.06;;;9.81;68.43
41306;BME280;27051;50.376;19.152;2023-04-20T03:48:06;98330.61;;;9.81;68.41
41306;BME280;27051;50.376;19.152;2023-04-20T03:50:33;98332.28;;;9.78;68.33
41306;BME280;27051;50.376;19.152;2023-04-20T03:52:59;98327.58;;;9.72;68.41
41306;BME280;27051;50.376;19.152;2023-04-20T03:55:26;98329.76;;;9.74;68.46
41306;BME280;27051;50.376;19.152;2023-04-20T03:57:53;98328.25;;;9.75;68.47
41306;BME280;27051;50.376;19.152;2023-04-20T04:00:19;98331.48;;;9.82;68.39
41306;BME280;27051;50.376;19.152;2023-04-20T04:02:46;98327.01;;;9.83;68.35
41306;BME280;27051;50.376;19.152;2023-04-20T04:05:12;98332.06;;;9.81;68.31
41306;BME280;27051;50.376;19.152;2023-04-20T04:07:39;98334.30;;;9.82;68.27
41306;BME280;27051;50.376;19.152;2023-04-20T04:10:06;98338.85;;;9.77;68.13
41306;BME280;27051;50.376;19.152;2023-04-20T04:12:33;98335.63;;;9.69;68.30
41306;BME280;27051;50.376;19.152;2023-04-20T04:15:00;98337.17;;;9.66;68.36
41306;BME280;27051;50.376;19.152;2023-04-20T04:17:26;98338.53;;;9.65;68.47
41306;BME280;27051;50.376;19.152;2023-04-20T04:19:53;98341.58;;;9.67;68.41
41306;BME280;27051;50.376;19.152;2023-04-20T04:22:19;98342.07;;;9.69;68.42
41306;BME280;27051;50.376;19.152;2023-04-20T04:24:46;98346.27;;;9.69;68.44
41306;BME280;27051;50.376;19.152;2023-04-20T04:27:12;98344.89;;;9.73;68.53
41306;BME280;27051;50.376;19.152;2023-04-20T04:29:38;98346.27;;;9.70;68.46
41306;BME280;27051;50.376;19.152;2023-04-20T04:32:05;98342.23;;;9.64;68.51
41306;BME280;27051;50.376;19.152;2023-04-20T04:34:31;98342.20;;;9.63;68.64
41306;BME280;27051;50.376;19.152;2023-04-20T04:36:58;98345.79;;;9.70;68.64
41306;BME280;27051;50.376;19.152;2023-04-20T04:39:25;98348.88;;;9.79;68.47
41306;BME280;27051;50.376;19.152;2023-04-20T04:41:52;98349.80;;;9.84;68.52
41306;BME280;27051;50.376;19.152;2023-04-20T04:44:18;98347.47;;;9.87;68.46
41306;BME280;27051;50.376;19.152;2023-04-20T04:46:45;98347.95;;;9.87;68.46
41306;BME280;27051;50.376;19.152;2023-04-20T04:49:12;98345.16;;;9.91;68.42
41306;BME280;27051;50.376;19.152;2023-04-20T04:51:39;98342.48;;;9.91;68.37
41306;BME280;27051;50.376;19.152;2023-04-20T04:54:05;98346.20;;;9.94;68.54
41306;BME280;27051;50.376;19.152;2023-04-20T04:56:31;98355.42;;;9.99;68.46
41306;BME280;27051;50.376;19.152;2023-04-20T04:58:58;98357.23;;;10.09;68.48
41306;BME280;27051;50.376;19.152;2023-04-20T05:01:24;98357.41;;;10.14;68.27
41306;BME280;27051;50.376;19.152;2023-04-20T05:03:51;98358.05;;;10.17;68.23
41306;BME280;27051;50.376;19.152;2023-04-20T05:06:17;98356.73;;;10.16;68.14
41306;BME280;27051;50.376;19.152;2023-04-20T05:08:45;98356.85;;;10.17;68.19
41306;BME280;27051;50.376;19.152;2023-04-20T05:11:11;98356.77;;;10.15;68.33
41306;BME280;27051;50.376;19.152;2023-04-20T05:13:38;98361.61;;;10.19;68.32
41306;BME280;27051;50.376;19.152;2023-04-20T05:16:04;98362.85;;;10.25;68.31
41306;BME280;27051;50.376;19.152;2023-04-20T05:18:30;98365.05;;;10.36;68.13
41306;BME280;27051;50.376;19.152;2023-04-20T05:20:57;98363.36;;;10.40;68.02
41306;BME280;27051;50.376;19.152;2023-04-20T05:23:29;98364.80;;;10.46;68.19
41306;BME280;27051;50.376;19.152;2023-04-20T05:25:56;98369.64;;;10.53;68.01
41306;BME280;27051;50.376;19.152;2023-04-20T05:28:22;98368.65;;;10.57;68.00
41306;BME280;27051;50.376;19.152;2023-04-20T05:30:48;98368.52;;;10.56;68.21
41306;BME280;27051;50.376;19.152;2023-04-20T05:33:15;98372.03;;;10.60;68.13
41306;BME280;27051;50.376;19.152;2023-04-20T05:35:41;98371.25;;;10.62;68.05
41306;BME280;27051;50.376;19.152;2023-04-20T05:38:08;98375.69;;;10.71;67.94
41306;BME280;27051;50.376;19.152;2023-04-20T05:40:34;98374.53;;;10.73;67.86
41306;BME280;27051;50.376;19.152;2023-04-20T05:43:01;98378.49;;;10.81;67.81
41306;BME280;27051;50.376;19.152;2023-04-20T05:45:27;98379.89;;;10.82;67.74
41306;BME280;27051;50.376;19.152;2023-04-20T05:47:55;98380.23;;;10.78;67.56
41306;BME280;27051;50.376;19.152;2023-04-20T05:50:23;98380.54;;;10.78;67.84
41306;BME280;27051;50.376;19.152;2023-04-20T05:52:50;98377.60;;;10.73;67.81
41306;BME280;27051;50.376;19.152;2023-04-20T05:55:17;98380.77;;;10.69;67.79
41306;BME280;27051;50.376;19.152;2023-04-20T05:57:44;98385.56;;;10.72;67.86
41306;BME280;27051;50.376;19.152;2023-04-20T06:00:13;98388.39;;;10.81;67.84
41306;BME280;27051;50.376;19.152;2023-04-20T06:02:40;98392.31;;;10.78;67.59
41306;BME280;27051;50.376;19.152;2023-04-20T06:05:09;98395.17;;;10.77;67.70
41306;BME280;27051;50.376;19.152;2023-04-20T06:07:36;98395.17;;;10.77;67.69
41306;BME280;27051;50.376;19.152;2023-04-20T06:10:03;98394.98;;;10.74;67.70
41306;BME280;27051;50.376;19.152;2023-04-20T06:12:30;98397.10;;;10.66;67.60
41306;BME280;27051;50.376;19.152;2023-04-20T06:14:57;98392.25;;;10.59;67.73
41306;BME280;27051;50.376;19.152;2023-04-20T06:17:24;98393.40;;;10.61;67.91
41306;BME280;27051;50.376;19.152;2023-04-20T06:19:51;98393.23;;;10.65;67.89
41306;BME280;27051;50.376;19.152;2023-04-20T06:22:18;98394.53;;;10.80;67.94
41306;BME280;27051;50.376;19.152;2023-04-20T06:24:44;98392.60;;;10.89;67.72
41306;BME280;27051;50.376;19.152;2023-04-20T06:27:11;98394.79;;;10.95;67.77
41306;BME280;27051;50.376;19.152;2023-04-20T06:29:37;98394.63;;;11.06;67.92
41306;BME280;27051;50.376;19.152;2023-04-20T06:32:04;98395.27;;;11.15;67.56
41306;BME280;27051;50.376;19.152;2023-04-20T06:34:30;98395.68;;;11.25;67.62
41306;BME280;27051;50.376;19.152;2023-04-20T06:36:57;98394.55;;;11.33;67.65
41306;BME280;27051;50.376;19.152;2023-04-20T06:39:23;98397.09;;;11.50;67.46
41306;BME280;27051;50.376;19.152;2023-04-20T06:41:50;98394.80;;;11.64;67.11
41306;BME280;27051;50.376;19.152;2023-04-20T06:44:16;98399.52;;;11.82;66.92
41306;BME280;27051;50.376;19.152;2023-04-20T06:46:42;98401.75;;;11.98;66.64
41306;BME280;27051;50.376;19.152;2023-04-20T06:49:09;98397.30;;;12.09;66.64
41306;BME280;27051;50.376;19.152;2023-04-20T06:51:35;98397.89;;;12.24;66.50
41306;BME280;27051;50.376;19.152;2023-04-20T06:54:02;98400.94;;;12.39;66.48
41306;BME280;27051;50.376;19.152;2023-04-20T06:56:34;98400.01;;;12.51;66.12
41306;BME280;27051;50.376;19.152;2023-04-20T06:59:01;98396.48;;;12.62;66.06
41306;BME280;27051;50.376;19.152;2023-04-20T07:01:27;98390.25;;;12.75;66.17
41306;BME280;27051;50.376;19.152;2023-04-20T07:03:54;98389.04;;;13.03;66.14
41306;BME280;27051;50.376;19.152;2023-04-20T07:06:21;98393.59;;;13.28;66.12
41306;BME280;27051;50.376;19.152;2023-04-20T07:08:47;98388.27;;;13.43;65.68
41306;BME280;27051;50.376;19.152;2023-04-20T07:11:14;98393.23;;;13.48;65.17
41306;BME280;27051;50.376;19.152;2023-04-20T07:13:40;98396.70;;;13.39;65.03
41306;BME280;27051;50.376;19.152;2023-04-20T07:16:07;98397.67;;;13.34;65.07
41306;BME280;27051;50.376;19.152;2023-04-20T07:18:34;98402.48;;;13.35;64.88
41306;BME280;27051;50.376;19.152;2023-04-20T07:21:00;98403.00;;;13.43;64.67
41306;BME280;27051;50.376;19.152;2023-04-20T07:23:27;98402.73;;;13.56;64.72
41306;BME280;27051;50.376;19.152;2023-04-20T07:25:53;98408.89;;;13.68;64.71
41306;BME280;27051;50.376;19.152;2023-04-20T07:28:20;98410.27;;;13.86;64.73
41306;BME280;27051;50.376;19.152;2023-04-20T07:30:46;98399.96;;;13.94;64.39
41306;BME280;27051;50.376;19.152;2023-04-20T07:33:12;98403.25;;;14.11;64.30
41306;BME280;27051;50.376;19.152;2023-04-20T07:35:39;98404.69;;;14.36;64.14
41306;BME280;27051;50.376;19.152;2023-04-20T07:38:05;98405.64;;;14.64;64.03
41306;BME280;27051;50.376;19.152;2023-04-20T07:40:32;98409.21;;;14.74;62.70
41306;BME280;27051;50.376;19.152;2023-04-20T07:42:58;98413.02;;;14.67;62.53
41306;BME280;27051;50.376;19.152;2023-04-20T07:45:25;98414.10;;;14.58;62.69
41306;BME280;27051;50.376;19.152;2023-04-20T07:47:51;98414.88;;;14.48;62.63
41306;BME280;27051;50.376;19.152;2023-04-20T07:50:17;98413.58;;;14.48;62.78
41306;BME280;27051;50.376;19.152;2023-04-20T07:52:44;98414.63;;;14.51;62.76
41306;BME280;27051;50.376;19.152;2023-04-20T07:55:10;98417.09;;;14.57;62.44
41306;BME280;27051;50.376;19.152;2023-04-20T07:57:37;98412.80;;;14.59;62.04
41306;BME280;27051;50.376;19.152;2023-04-20T08:00:04;98410.86;;;14.63;62.17
41306;BME280;27051;50.376;19.152;2023-04-20T08:02:31;98406.37;;;14.71;62.20
41306;BME280;27051;50.376;19.152;2023-04-20T08:04:58;98406.88;;;14.81;62.42
41306;BME280;27051;50.376;19.152;2023-04-20T08:07:26;98411.21;;;14.90;62.10
41306;BME280;27051;50.376;19.152;2023-04-20T08:09:53;98407.67;;;14.96;62.03
41306;BME280;27051;50.376;19.152;2023-04-20T08:12:19;98407.51;;;15.00;61.65
41306;BME280;27051;50.376;19.152;2023-04-20T08:14:45;98408.19;;;15.03;61.69
41306;BME280;27051;50.376;19.152;2023-04-20T08:17:12;98409.47;;;15.06;61.67
41306;BME280;27051;50.376;19.152;2023-04-20T08:19:38;98412.82;;;15.11;61.71
41306;BME280;27051;50.376;19.152;2023-04-20T08:22:05;98410.79;;;15.11;61.56
41306;BME280;27051;50.376;19.152;2023-04-20T08:24:31;98414.71;;;15.18;61.27
41306;BME280;27051;50.376;19.152;2023-04-20T08:26:57;98417.86;;;15.36;61.27
41306;BME280;27051;50.376;19.152;2023-04-20T08:29:24;98418.80;;;15.52;60.83
41306;BME280;27051;50.376;19.152;2023-04-20T08:31:51;98416.10;;;15.58;60.43
41306;BME280;27051;50.376;19.152;2023-04-20T08:34:17;98418.33;;;15.67;60.19
41306;BME280;27051;50.376;19.152;2023-04-20T08:36:43;98418.60;;;15.69;60.02
41306;BME280;27051;50.376;19.152;2023-04-20T08:39:13;98416.20;;;15.69;60.09
41306;BME280;27051;50.376;19.152;2023-04-20T08:41:40;98418.91;;;15.78;60.15
41306;BME280;27051;50.376;19.152;2023-04-20T08:44:16;98422.35;;;15.86;59.79
41306;BME280;27051;50.376;19.152;2023-04-20T08:46:46;98421.39;;;15.89;59.53
41306;BME280;27051;50.376;19.152;2023-04-20T08:49:18;98420.90;;;15.93;59.91
41306;BME280;27051;50.376;19.152;2023-04-20T08:51:46;98422.71;;;16.01;59.75
41306;BME280;27051;50.376;19.152;2023-04-20T08:54:14;98424.96;;;16.08;59.72
41306;BME280;27051;50.376;19.152;2023-04-20T08:56:43;98422.76;;;16.17;59.40
41306;BME280;27051;50.376;19.152;2023-04-20T08:59:10;98425.84;;;16.21;59.10
41306;BME280;27051;50.376;19.152;2023-04-20T09:01:37;98422.73;;;16.26;58.84
41306;BME280;27051;50.376;19.152;2023-04-20T09:04:19;98430.13;;;16.35;58.82
41306;BME280;27051;50.376;19.152;2023-04-20T09:06:46;98424.34;;;16.43;58.25
41306;BME280;27051;50.376;19.152;2023-04-20T09:09:13;98422.83;;;16.61;58.46
41306;BME280;27051;50.376;19.152;2023-04-20T09:11:39;98419.98;;;16.82;58.25
41306;BME280;27051;50.376;19.152;2023-04-20T09:14:10;98424.70;;;17.15;58.46
41306;BME280;27051;50.376;19.152;2023-04-20T09:16:51;98418.70;;;17.69;57.90
41306;BME280;27051;50.376;19.152;2023-04-20T09:19:25;98419.38;;;18.15;57.23
41306;BME280;27051;50.376;19.152;2023-04-20T09:21:54;98416.79;;;18.45;56.47
41306;BME280;27051;50.376;19.152;2023-04-20T09:24:23;98413.39;;;18.50;56.35
41306;BME280;27051;50.376;19.152;2023-04-20T09:26:49;98418.13;;;18.52;55.96
41306;BME280;27051;50.376;19.152;2023-04-20T09:31:44;98410.81;;;19.47;55.53
41306;BME280;27051;50.376;19.152;2023-04-20T09:34:11;98407.12;;;19.92;54.61
41306;BME280;27051;50.376;19.152;2023-04-20T09:36:38;98407.95;;;20.25;54.17
41306;BME280;27051;50.376;19.152;2023-04-20T09:39:10;98402.95;;;20.49;53.81
41306;BME280;27051;50.376;19.152;2023-04-20T09:41:38;98405.60;;;20.90;53.66
41306;BME280;27051;50.376;19.152;2023-04-20T09:44:05;98404.95;;;21.08;51.94
41306;BME280;27051;50.376;19.152;2023-04-20T09:46:34;98402.61;;;20.96;51.12
41306;BME280;27051;50.376;19.152;2023-04-20T09:49:03;98399.96;;;20.82;51.21
41306;BME280;27051;50.376;19.152;2023-04-20T09:51:31;98399.05;;;20.89;51.20
41306;BME280;27051;50.376;19.152;2023-04-20T09:53:59;98398.35;;;21.02;51.97
41306;BME280;27051;50.376;19.152;2023-04-20T09:56:27;98396.52;;;21.56;51.38
41306;BME280;27051;50.376;19.152;2023-04-20T09:58:55;98399.08;;;21.92;50.54
41306;BME280;27051;50.376;19.152;2023-04-20T10:01:22;98396.84;;;21.88;50.35
41306;BME280;27051;50.376;19.152;2023-04-20T10:03:49;98398.22;;;21.59;49.24
41306;BME280;27051;50.376;19.152;2023-04-20T10:06:24;98397.69;;;21.28;49.70
41306;BME280;27051;50.376;19.152;2023-04-20T10:08:51;98396.38;;;20.95;49.40
41306;BME280;27051;50.376;19.152;2023-04-20T10:11:32;98395.42;;;20.53;49.05
41306;BME280;27051;50.376;19.152;2023-04-20T10:14:13;98396.24;;;20.02;49.16
41306;BME280;27051;50.376;19.152;2023-04-20T10:16:41;98396.33;;;19.59;48.88
41306;BME280;27051;50.376;19.152;2023-04-20T10:19:08;98395.95;;;19.29;49.54
41306;BME280;27051;50.376;19.152;2023-04-20T10:21:44;98393.29;;;19.02;49.51
41306;BME280;27051;50.376;19.152;2023-04-20T10:24:11;98387.27;;;18.80;49.69
41306;BME280;27051;50.376;19.152;2023-04-20T10:26:40;98382.06;;;18.60;49.57
41306;BME280;27051;50.376;19.152;2023-04-20T10:29:07;98392.41;;;18.36;49.35
41306;BME280;27051;50.376;19.152;2023-04-20T10:34:01;98389.26;;;17.91;49.93
41306;BME280;27051;50.376;19.152;2023-04-20T10:36:30;98387.72;;;17.71;49.72
41306;BME280;27051;50.376;19.152;2023-04-20T10:38:57;98391.60;;;17.49;49.95
41306;BME280;27051;50.376;19.152;2023-04-20T10:41:24;98390.21;;;17.29;50.04
41306;BME280;27051;50.376;19.152;2023-04-20T10:43:51;98391.10;;;17.04;50.08
41306;BME280;27051;50.376;19.152;2023-04-20T10:46:22;98390.59;;;16.84;50.32
41306;BME280;27051;50.376;19.152;2023-04-20T10:49:00;98386.64;;;16.70;50.68
41306;BME280;27051;50.376;19.152;2023-04-20T10:51:27;98388.33;;;16.68;51.04
41306;BME280;27051;50.376;19.152;2023-04-20T10:54:03;98386.00;;;16.67;51.00
41306;BME280;27051;50.376;19.152;2023-04-20T10:56:37;98388.80;;;16.61;50.84
41306;BME280;27051;50.376;19.152;2023-04-20T10:59:15;98388.17;;;16.55;50.70
41306;BME280;27051;50.376;19.152;2023-04-20T11:01:43;98383.41;;;16.58;51.30
41306;BME280;27051;50.376;19.152;2023-04-20T11:04:10;98384.81;;;16.64;51.17
41306;BME280;27051;50.376;19.152;2023-04-20T11:06:41;98378.09;;;16.75;51.36
41306;BME280;27051;50.376;19.152;2023-04-20T11:11:44;98376.17;;;17.64;51.30
41306;BME280;27051;50.376;19.152;2023-04-20T11:14:12;98367.33;;;18.88;50.69
41306;BME280;27051;50.376;19.152;2023-04-20T11:16:39;98367.75;;;20.44;49.71
41306;BME280;27051;50.376;19.152;2023-04-20T11:19:05;98374.54;;;22.02;48.28
41306;BME280;27051;50.376;19.152;2023-04-20T11:21:40;98372.68;;;22.99;45.94
41306;BME280;27051;50.376;19.152;2023-04-20T11:24:18;98368.15;;;23.28;45.88
41306;BME280;27051;50.376;19.152;2023-04-20T11:26:44;98374.45;;;22.95;44.63
41306;BME280;27051;50.376;19.152;2023-04-20T11:29:11;98377.81;;;22.44;44.54
41306;BME280;27051;50.376;19.152;2023-04-20T11:31:38;98380.34;;;21.88;45.41
41306;BME280;27051;50.376;19.152;2023-04-20T11:34:04;98378.58;;;21.44;45.43
41306;BME280;27051;50.376;19.152;2023-04-20T11:36:31;98381.02;;;21.00;45.36
41306;BME280;27051;50.376;19.152;2023-04-20T11:39:06;98383.50;;;20.68;46.19
41306;BME280;27051;50.376;19.152;2023-04-20T11:41:33;98383.31;;;20.43;46.01
41306;BME280;27051;50.376;19.152;2023-04-20T11:43:59;98384.14;;;20.13;45.97
41306;BME280;27051;50.376;19.152;2023-04-20T11:46:26;98385.14;;;19.87;46.22
41306;BME280;27051;50.376;19.152;2023-04-20T11:48:52;98388.46;;;19.60;45.99
41306;BME280;27051;50.376;19.152;2023-04-20T11:51:18;98381.23;;;19.32;46.20
41306;BME280;27051;50.376;19.152;2023-04-20T11:53:45;98376.47;;;19.07;46.44
41306;BME280;27051;50.376;19.152;2023-04-20T11:56:11;98376.39;;;18.91;46.63
41306;BME280;27051;50.376;19.152;2023-04-20T11:58:38;98376.59;;;18.73;46.77
41306;BME280;27051;50.376;19.152;2023-04-20T12:01:04;98384.72;;;18.61;46.79
41306;BME280;27051;50.376;19.152;2023-04-20T12:03:30;98380.27;;;18.50;46.95
41306;BME280;27051;50.376;19.152;2023-04-20T12:05:57;98385.20;;;18.40;47.32
41306;BME280;27051;50.376;19.152;2023-04-20T12:08:23;98385.26;;;18.34;47.47
41306;BME280;27051;50.376;19.152;2023-04-20T12:10:50;98383.88;;;18.38;47.42
41306;BME280;27051;50.376;19.152;2023-04-20T12:13:16;98379.64;;;18.53;47.39
41306;BME280;27051;50.376;19.152;2023-04-20T12:15:43;98379.48;;;18.77;47.47
41306;BME280;27051;50.376;19.152;2023-04-20T12:18:09;98377.50;;;19.11;47.30
41306;BME280;27051;50.376;19.152;2023-04-20T12:20:35;98376.95;;;19.39;47.24
41306;BME280;27051;50.376;19.152;2023-04-20T12:23:02;98376.22;;;19.70;46.81
41306;BME280;27051;50.376;19.152;2023-04-20T12:25:28;98374.98;;;19.99;46.57
41306;BME280;27051;50.376;19.152;2023-04-20T12:27:55;98374.33;;;20.08;46.17
41306;BME280;27051;50.376;19.152;2023-04-20T12:30:22;98372.36;;;20.13;45.96
41306;BME280;27051;50.376;19.152;2023-04-20T12:32:48;98368.40;;;20.11;46.10
41306;BME280;27051;50.376;19.152;2023-04-20T12:35:15;98370.74;;;20.09;46.43
41306;BME280;27051;50.376;19.152;2023-04-20T12:37:41;98362.13;;;20.20;46.49
41306;BME280;27051;50.376;19.152;2023-04-20T12:40:08;98364.05;;;20.41;46.18
41306;BME280;27051;50.376;19.152;2023-04-20T12:42:34;98368.98;;;20.55;45.82
41306;BME280;27051;50.376;19.152;2023-04-20T12:45:01;98367.19;;;20.92;45.17
41306;BME280;27051;50.376;19.152;2023-04-20T12:47:27;98366.12;;;21.73;44.49
41306;BME280;27051;50.376;19.152;2023-04-20T12:49:53;98366.91;;;21.72;43.93
41306;BME280;27051;50.376;19.152;2023-04-20T12:52:20;98364.17;;;21.39;43.86
41306;BME280;27051;50.376;19.152;2023-04-20T12:54:46;98360.48;;;21.04;44.06
41306;BME280;27051;50.376;19.152;2023-04-20T12:57:13;98365.01;;;20.67;43.90
41306;BME280;27051;50.376;19.152;2023-04-20T12:59:39;98360.73;;;20.33;43.98
41306;BME280;27051;50.376;19.152;2023-04-20T13:02:06;98360.38;;;20.07;44.07